Time;durP1;ratioP1;P1;durP2;ratioP2;P2;SDS_P1;SDS_P2;PMS_P1;PMS_P2;Temp;Humidity;BMP_temperature;BMP_pressure;BME280_temperature;BME280_humidity;BME280_pressure;Samples;Min_cycle;Max_cycle;Signal;HPM_P1;HPM_P2
2023/12/02 00:00:20;;;;;;;28.17;12.27;;;0.20;99.90;;;;;;4970595;28;20027;-63
2023/12/02 00:02:46;;;;;;;24.63;11.18;;;0.20;99.90;;;;;;4970334;28;20030;-62
2023/12/02 00:05:11;;;;;;;25.48;11.23;;;0.20;99.90;;;;;;4971297;28;20516;-60
2023/12/02 00:07:37;;;;;;;28.80;11.32;;;0.20;99.90;;;;;;4969976;28;20027;-61
2023/12/02 00:10:03;;;;;;;29.42;13.70;;;0.20;99.90;;;;;;4969204;28;20054;-63
2023/12/02 00:12:29;;;;;;;27.73;12.07;;;0.20;99.90;;;;;;4969403;28;20034;-63
2023/12/02 00:14:54;;;;;;;24.45;12.50;;;0.10;99.90;;;;;;4971605;28;20488;-64
2023/12/02 00:17:20;;;;;;;28.75;12.20;;;0.10;99.90;;;;;;4969868;28;20046;-63
2023/12/02 00:19:45;;;;;;;29.35;12.85;;;0.20;99.90;;;;;;4969013;28;20101;-63
2023/12/02 00:22:11;;;;;;;28.33;12.48;;;0.10;99.90;;;;;;4969861;28;20039;-62
2023/12/02 00:24:36;;;;;;;25.77;12.60;;;0.10;99.90;;;;;;4967668;28;20027;-60
2023/12/02 00:27:03;;;;;;;25.08;12.32;;;0.10;99.90;;;;;;4971069;28;20034;-61
2023/12/02 00:29:28;;;;;;;26.10;12.80;;;0.10;99.90;;;;;;4970466;28;20492;-61
2023/12/02 00:31:54;;;;;;;28.15;12.82;;;0.10;99.90;;;;;;4974661;28;20062;-62
2023/12/02 00:34:20;;;;;;;28.73;12.05;;;0.10;99.90;;;;;;4976430;28;20450;-62
2023/12/02 00:36:46;;;;;;;23.00;11.15;;;0.10;99.90;;;;;;4973513;28;20027;-63
2023/12/02 00:39:11;;;;;;;27.58;11.38;;;0.10;99.90;;;;;;4973297;28;20041;-61
2023/12/02 00:41:37;;;;;;;29.00;11.82;;;0.10;99.90;;;;;;4970498;28;20035;-63
2023/12/02 00:44:03;;;;;;;27.77;13.20;;;0.10;99.90;;;;;;4975415;28;20015;-61
2023/12/02 00:46:29;;;;;;;28.70;13.60;;;0.10;99.90;;;;;;4972609;28;20023;-63
2023/12/02 00:48:54;;;;;;;28.92;12.90;;;0.10;99.90;;;;;;4968057;28;20038;-63
2023/12/02 00:51:20;;;;;;;24.65;12.18;;;0.10;99.90;;;;;;4974531;28;20022;-62
2023/12/02 00:53:45;;;;;;;24.02;10.38;;;0.10;99.90;;;;;;4971234;28;20026;-62
2023/12/02 00:56:11;;;;;;;21.80;11.07;;;0.10;99.90;;;;;;4971964;28;20055;-61
2023/12/02 00:58:36;;;;;;;28.35;12.70;;;0.10;99.90;;;;;;4971490;28;20070;-62
2023/12/02 01:01:02;;;;;;;23.95;11.25;;;0.00;99.90;;;;;;4974297;28;20106;-60
2023/12/02 01:03:28;;;;;;;26.17;11.57;;;0.00;99.90;;;;;;4973520;28;20034;-61
2023/12/02 01:05:53;;;;;;;24.42;10.70;;;0.00;99.90;;;;;;4971134;28;20148;-62
2023/12/02 01:08:19;;;;;;;27.40;11.85;;;0.00;99.90;;;;;;4973512;28;20050;-62
2023/12/02 01:10:44;;;;;;;23.65;11.57;;;0.00;99.90;;;;;;4971474;28;20644;-60
2023/12/02 01:13:10;;;;;;;26.30;12.20;;;0.00;99.90;;;;;;4973749;28;20089;-63
2023/12/02 01:15:35;;;;;;;24.35;10.80;;;0.00;99.90;;;;;;4969497;28;20046;-61
2023/12/02 01:18:01;;;;;;;25.33;11.98;;;0.10;99.90;;;;;;4973829;28;20033;-61
2023/12/02 01:20:26;;;;;;;25.50;10.40;;;0.00;99.90;;;;;;4972476;28;20038;-61
2023/12/02 01:22:52;;;;;;;25.80;11.57;;;-0.10;99.90;;;;;;4973903;28;20035;-63
2023/12/02 01:25:17;;;;;;;25.55;12.23;;;0.00;99.90;;;;;;4969897;28;20034;-62
2023/12/02 01:27:43;;;;;;;23.15;11.02;;;0.00;99.90;;;;;;4972567;28;20031;-62
2023/12/02 01:30:09;;;;;;;26.42;11.35;;;0.00;99.90;;;;;;4965746;28;20037;-64
2023/12/02 01:32:34;;;;;;;24.25;11.18;;;0.10;99.90;;;;;;4970545;28;20041;-60
2023/12/02 01:35:00;;;;;;;19.25;9.98;;;0.10;99.90;;;;;;4972988;28;20030;-61
2023/12/02 01:37:26;;;;;;;22.90;11.48;;;0.20;99.90;;;;;;4971638;28;20033;-62
2023/12/02 01:39:51;;;;;;;26.00;11.32;;;0.10;99.90;;;;;;4971551;28;20440;-62
2023/12/02 01:42:18;;;;;;;22.25;11.07;;;0.10;99.90;;;;;;4971379;28;20035;-63
2023/12/02 01:44:43;;;;;;;25.90;11.05;;;0.10;99.90;;;;;;4973771;28;20019;-63
2023/12/02 01:47:09;;;;;;;23.13;11.80;;;0.10;99.90;;;;;;4970641;28;20085;-63
2023/12/02 01:49:36;;;;;;;21.23;10.45;;;0.00;99.90;;;;;;4970526;28;20085;-61
2023/12/02 01:52:02;;;;;;;21.13;10.80;;;0.00;99.90;;;;;;4974217;28;20054;-61
2023/12/02 01:54:27;;;;;;;21.13;10.43;;;-0.10;99.90;;;;;;4972461;28;20034;-62
2023/12/02 01:56:53;;;;;;;26.20;10.25;;;-0.10;99.90;;;;;;4973514;28;20038;-62
2023/12/02 01:59:19;;;;;;;22.02;10.73;;;-0.10;99.90;;;;;;4973450;28;20108;-61
2023/12/02 02:01:45;;;;;;;22.33;10.30;;;-0.10;99.90;;;;;;4967200;28;20054;-62
2023/12/02 02:04:11;;;;;;;21.45;11.00;;;-0.10;99.90;;;;;;4973636;28;20475;-63
2023/12/02 02:06:37;;;;;;;21.42;9.73;;;-0.20;99.90;;;;;;4964164;28;20097;-60
2023/12/02 02:09:02;;;;;;;24.00;10.70;;;-0.20;99.90;;;;;;4970534;28;20097;-61
2023/12/02 02:11:28;;;;;;;23.67;10.98;;;-0.30;99.90;;;;;;4969300;28;20170;-63
2023/12/02 02:13:54;;;;;;;26.27;11.95;;;-0.20;99.90;;;;;;4969859;28;20043;-62
2023/12/02 02:16:19;;;;;;;22.95;11.18;;;-0.20;99.90;;;;;;4967805;28;20023;-63
2023/12/02 02:18:45;;;;;;;23.00;10.07;;;-0.20;99.90;;;;;;4967272;28;20019;-62
2023/12/02 02:21:19;;;;;;;20.35;9.73;;;-0.20;99.90;;;;;;4973699;28;20050;-62
2023/12/02 02:23:45;;;;;;;21.20;9.80;;;-0.20;99.90;;;;;;4967668;28;20027;-63
2023/12/02 02:26:10;;;;;;;22.42;11.02;;;-0.20;99.90;;;;;;4972345;28;20396;-62
2023/12/02 02:28:36;;;;;;;23.42;11.43;;;-0.30;99.90;;;;;;4970275;28;20024;-64
2023/12/02 02:31:01;;;;;;;24.85;11.23;;;-0.20;99.90;;;;;;4974578;28;20097;-60
2023/12/02 02:33:27;;;;;;;27.88;11.75;;;-0.10;99.90;;;;;;4971977;28;20113;-62
2023/12/02 02:35:52;;;;;;;22.92;11.05;;;-0.10;99.90;;;;;;4973005;28;20036;-63
2023/12/02 02:38:18;;;;;;;23.33;10.57;;;-0.20;99.90;;;;;;4968866;28;20049;-61
2023/12/02 02:40:44;;;;;;;21.73;10.60;;;-0.30;99.90;;;;;;4966188;28;20033;-60
2023/12/02 02:43:10;;;;;;;22.58;10.68;;;-0.20;99.90;;;;;;4971358;28;20081;-62
2023/12/02 02:45:35;;;;;;;24.15;10.88;;;-0.10;99.90;;;;;;4969184;28;20018;-62
2023/12/02 02:48:01;;;;;;;22.38;10.07;;;0.00;99.90;;;;;;4966895;28;20023;-61
2023/12/02 02:50:27;;;;;;;20.95;10.30;;;0.00;99.90;;;;;;4971482;28;20019;-62
2023/12/02 02:52:53;;;;;;;21.75;10.48;;;0.10;99.90;;;;;;4970630;28;20042;-62
2023/12/02 02:55:18;;;;;;;26.38;10.63;;;0.00;99.90;;;;;;4970829;28;20030;-62
2023/12/02 02:57:44;;;;;;;18.45;8.95;;;0.00;99.90;;;;;;4971573;28;20397;-62
2023/12/02 03:00:10;;;;;;;20.73;10.13;;;0.10;99.90;;;;;;4969056;28;20031;-62
2023/12/02 03:02:37;;;;;;;21.30;9.65;;;0.10;99.90;;;;;;4971583;28;20101;-62
2023/12/02 03:05:04;;;;;;;20.50;9.60;;;0.10;99.90;;;;;;4972018;28;20077;-62
2023/12/02 03:07:30;;;;;;;22.67;10.88;;;0.10;99.90;;;;;;4970960;28;20088;-62
2023/12/02 03:09:56;;;;;;;20.48;9.40;;;0.10;99.90;;;;;;4970242;28;20031;-61
2023/12/02 03:12:22;;;;;;;27.77;10.82;;;0.10;99.90;;;;;;4972449;28;20031;-62
2023/12/02 03:14:48;;;;;;;20.30;9.88;;;0.10;99.90;;;;;;4968293;28;20023;-60
2023/12/02 03:17:13;;;;;;;21.45;9.93;;;0.00;99.90;;;;;;4970306;28;20034;-62
2023/12/02 03:19:39;;;;;;;22.92;10.93;;;0.00;99.90;;;;;;4969187;28;20031;-64
2023/12/02 03:22:05;;;;;;;22.15;10.82;;;-0.10;99.90;;;;;;4962846;28;20039;-61
2023/12/02 03:24:30;;;;;;;22.65;9.98;;;-0.10;99.90;;;;;;4971526;28;20452;-61
2023/12/02 03:26:56;;;;;;;19.30;9.82;;;-0.10;99.90;;;;;;4968222;28;20054;-61
2023/12/02 03:29:22;;;;;;;22.50;9.68;;;0.00;99.90;;;;;;4969974;28;20113;-61
2023/12/02 03:31:47;;;;;;;29.27;10.55;;;0.10;99.90;;;;;;4965427;28;20034;-62
2023/12/02 03:34:13;;;;;;;22.60;9.65;;;0.20;99.90;;;;;;4970169;28;20031;-61
2023/12/02 03:36:39;;;;;;;26.33;11.52;;;0.20;99.90;;;;;;4971557;28;20028;-61
2023/12/02 03:39:05;;;;;;;19.83;10.15;;;0.20;99.90;;;;;;4966640;28;20401;-62
2023/12/02 03:41:32;;;;;;;24.98;10.90;;;0.20;99.90;;;;;;4969783;28;20110;-62
2023/12/02 03:43:57;;;;;;;24.60;11.32;;;0.10;99.90;;;;;;4970920;28;20023;-62
2023/12/02 03:46:23;;;;;;;24.73;10.55;;;0.10;99.90;;;;;;4972086;28;20081;-62
2023/12/02 03:48:48;;;;;;;23.25;10.55;;;0.20;99.90;;;;;;4967156;28;20030;-61
2023/12/02 03:51:14;;;;;;;21.48;10.70;;;0.20;99.90;;;;;;4968166;28;20436;-61
2023/12/02 03:53:40;;;;;;;24.13;11.82;;;0.20;99.90;;;;;;4971023;28;20445;-61
2023/12/02 03:56:06;;;;;;;21.52;10.50;;;0.20;99.90;;;;;;4968502;28;20026;-63
2023/12/02 03:58:31;;;;;;;21.83;10.35;;;0.10;99.90;;;;;;4971275;28;20279;-61
2023/12/02 04:00:57;;;;;;;26.65;11.05;;;0.20;99.90;;;;;;4971804;28;20409;-63
2023/12/02 04:03:23;;;;;;;24.48;10.90;;;0.30;99.90;;;;;;4971782;28;20077;-63
2023/12/02 04:05:50;;;;;;;26.05;12.60;;;0.30;99.90;;;;;;4970820;28;20489;-64
2023/12/02 04:08:16;;;;;;;24.10;10.73;;;0.30;99.90;;;;;;4970510;28;20350;-64
2023/12/02 04:10:42;;;;;;;21.33;10.88;;;0.30;99.90;;;;;;4970096;28;20113;-65
2023/12/02 04:13:08;;;;;;;24.15;11.30;;;0.20;99.90;;;;;;4968164;28;20165;-62
2023/12/02 04:15:34;;;;;;;25.92;12.07;;;0.30;99.90;;;;;;4970541;28;20033;-61
2023/12/02 04:17:59;;;;;;;24.77;10.90;;;0.20;99.90;;;;;;4970713;28;20019;-63
2023/12/02 04:20:25;;;;;;;25.25;11.50;;;0.20;99.90;;;;;;4970177;28;20041;-63
2023/12/02 04:22:50;;;;;;;23.15;11.07;;;0.10;99.90;;;;;;4965239;28;20037;-64
2023/12/02 04:25:16;;;;;;;24.33;10.38;;;0.10;99.90;;;;;;4969793;28;20046;-64
2023/12/02 04:27:42;;;;;;;25.10;11.30;;;0.20;99.90;;;;;;4969576;28;20038;-62
2023/12/02 04:30:11;;;;;;;26.65;11.73;;;0.30;99.90;;;;;;4968247;28;20031;-63
2023/12/02 04:32:36;;;;;;;27.80;11.93;;;0.30;99.90;;;;;;4967285;28;20030;-64
2023/12/02 04:35:03;;;;;;;26.15;12.13;;;0.30;99.90;;;;;;4969291;28;20109;-64
2023/12/02 04:37:29;;;;;;;26.73;11.85;;;0.30;99.90;;;;;;4966160;28;20538;-63
2023/12/02 04:39:54;;;;;;;27.13;12.00;;;0.30;99.90;;;;;;4969342;28;20030;-64
2023/12/02 04:42:20;;;;;;;22.02;11.35;;;0.30;99.90;;;;;;4969398;28;20022;-63
2023/12/02 04:44:46;;;;;;;23.65;11.80;;;0.30;99.90;;;;;;4968545;28;20381;-63
2023/12/02 04:47:11;;;;;;;25.75;11.50;;;0.30;99.90;;;;;;4966144;28;20444;-63
2023/12/02 04:49:38;;;;;;;19.75;10.15;;;0.30;99.90;;;;;;4968558;28;20047;-63
2023/12/02 04:52:04;;;;;;;23.85;11.82;;;0.30;99.90;;;;;;4968191;28;20483;-64
2023/12/02 04:54:30;;;;;;;21.58;11.07;;;0.00;99.90;;;;;;4969066;28;20703;-64
2023/12/02 04:56:56;;;;;;;24.60;10.98;;;-0.10;99.90;;;;;;4964499;28;20035;-64
2023/12/02 04:59:22;;;;;;;23.92;11.35;;;-0.20;99.90;;;;;;4970063;28;20058;-63
2023/12/02 05:01:47;;;;;;;24.38;10.35;;;-0.10;99.90;;;;;;4971169;28;20117;-64
2023/12/02 05:04:13;;;;;;;20.45;10.43;;;0.00;99.90;;;;;;4969560;28;20077;-65
2023/12/02 05:06:39;;;;;;;23.42;10.77;;;0.00;99.90;;;;;;4967606;28;20486;-64
2023/12/02 05:09:08;;;;;;;24.35;11.18;;;0.10;99.90;;;;;;4969276;28;20629;-63
2023/12/02 05:11:33;;;;;;;23.88;10.93;;;-0.10;99.90;;;;;;4970493;28;20401;-64
2023/12/02 05:13:59;;;;;;;21.90;10.18;;;-0.20;99.90;;;;;;4964815;28;20038;-65
2023/12/02 05:16:25;;;;;;;26.27;11.07;;;-0.10;99.90;;;;;;4972979;28;20081;-65
2023/12/02 05:18:50;;;;;;;24.92;10.30;;;0.10;99.90;;;;;;4969286;28;20023;-64
2023/12/02 05:21:16;;;;;;;21.15;10.02;;;0.20;99.90;;;;;;4970266;28;20074;-64
2023/12/02 05:23:42;;;;;;;22.27;11.00;;;0.10;99.90;;;;;;4974601;28;20027;-64
2023/12/02 05:26:08;;;;;;;25.40;10.45;;;0.00;99.90;;;;;;4973257;28;20029;-63
2023/12/02 05:28:33;;;;;;;21.65;10.25;;;-0.10;99.90;;;;;;4973843;28;20543;-64
2023/12/02 05:30:59;;;;;;;25.50;10.55;;;-0.20;99.90;;;;;;4972807;28;20117;-61
2023/12/02 05:33:26;;;;;;;23.15;12.85;;;-0.20;99.90;;;;;;4974533;28;20030;-67
2023/12/02 05:35:52;;;;;;;25.17;10.38;;;-0.20;99.90;;;;;;4971017;28;20194;-63
2023/12/02 05:38:17;;;;;;;21.85;10.85;;;-0.30;99.90;;;;;;4974065;28;20492;-64
2023/12/02 05:40:43;;;;;;;27.05;11.63;;;-0.20;99.90;;;;;;4972150;28;20116;-62
2023/12/02 05:43:08;;;;;;;23.63;10.25;;;-0.20;99.90;;;;;;4973438;28;20609;-62
2023/12/02 05:45:34;;;;;;;19.75;9.45;;;-0.10;99.90;;;;;;4971558;28;20030;-64
2023/12/02 05:48:00;;;;;;;19.50;9.65;;;0.00;99.90;;;;;;4965873;28;20030;-64
2023/12/02 05:50:26;;;;;;;19.42;9.35;;;0.10;99.90;;;;;;4970243;28;20151;-63
2023/12/02 05:52:52;;;;;;;21.85;10.85;;;0.30;99.90;;;;;;4969262;28;20033;-63
2023/12/02 05:55:17;;;;;;;18.10;10.05;;;0.30;99.90;;;;;;4970367;28;20115;-63
2023/12/02 05:57:46;;;;;;;19.98;9.35;;;0.40;99.90;;;;;;4968985;28;20485;-64
2023/12/02 06:00:13;;;;;;;22.15;9.40;;;0.40;99.90;;;;;;4972557;28;20599;-63
2023/12/02 06:02:39;;;;;;;21.73;9.68;;;0.40;99.90;;;;;;4971150;28;20489;-64
2023/12/02 06:05:06;;;;;;;22.42;9.77;;;0.50;99.90;;;;;;4971928;28;20070;-63
2023/12/02 06:07:32;;;;;;;21.38;10.02;;;0.50;99.90;;;;;;4972599;28;20357;-62
2023/12/02 06:09:57;;;;;;;19.88;10.23;;;0.40;99.90;;;;;;4971941;28;20026;-63
2023/12/02 06:12:23;;;;;;;22.77;10.77;;;0.50;99.90;;;;;;4968768;28;20053;-64
2023/12/02 06:14:49;;;;;;;21.58;9.93;;;0.50;99.90;;;;;;4970047;28;20046;-61
2023/12/02 06:17:15;;;;;;;21.77;11.00;;;0.60;99.90;;;;;;4966904;28;20058;-63
2023/12/02 06:19:40;;;;;;;20.90;10.02;;;0.60;99.90;;;;;;4971626;28;20054;-63
2023/12/02 06:22:06;;;;;;;24.67;11.30;;;0.50;99.90;;;;;;4970520;28;20039;-63
2023/12/02 06:24:31;;;;;;;23.98;11.80;;;0.50;99.90;;;;;;4972924;28;20037;-61
2023/12/02 06:26:57;;;;;;;22.77;11.93;;;0.50;99.90;;;;;;4971011;28;20084;-63
2023/12/02 06:29:22;;;;;;;23.17;10.88;;;0.50;99.90;;;;;;4972529;28;20027;-63
2023/12/02 06:31:49;;;;;;;20.33;10.20;;;0.50;99.90;;;;;;4971140;28;20061;-64
2023/12/02 06:34:16;;;;;;;25.98;10.98;;;0.50;99.90;;;;;;4968964;28;20026;-63
2023/12/02 06:36:41;;;;;;;23.17;10.35;;;0.50;99.90;;;;;;4971717;28;20039;-63
2023/12/02 06:39:07;;;;;;;20.15;9.85;;;0.50;99.90;;;;;;4967666;28;20753;-63
2023/12/02 06:41:33;;;;;;;24.25;10.65;;;0.40;99.90;;;;;;4968950;28;20463;-63
2023/12/02 06:43:58;;;;;;;20.33;10.85;;;0.40;99.90;;;;;;4970150;28;20043;-64
2023/12/02 06:46:24;;;;;;;23.50;11.55;;;0.50;99.90;;;;;;4968594;28;20034;-63
2023/12/02 06:48:50;;;;;;;20.92;10.55;;;0.30;99.90;;;;;;4970618;28;20400;-62
2023/12/02 06:51:16;;;;;;;23.25;10.20;;;0.40;99.90;;;;;;4966055;28;20031;-63
2023/12/02 06:53:41;;;;;;;23.55;10.43;;;0.40;99.90;;;;;;4970413;28;20019;-63
2023/12/02 06:56:23;;;;;;;25.50;12.55;;;0.40;99.90;;;;;;4970749;28;20030;-63
2023/12/02 06:58:49;;;;;;;22.85;11.07;;;0.50;99.90;;;;;;4973027;28;21311;-63
2023/12/02 07:01:32;;;;;;;22.25;11.43;;;0.50;99.90;;;;;;4971367;28;20056;-63
2023/12/02 07:03:59;;;;;;;25.80;12.52;;;0.40;99.90;;;;;;4968703;28;20030;-60
2023/12/02 07:06:26;;;;;;;24.33;11.98;;;0.40;99.90;;;;;;4966658;28;20112;-64
2023/12/02 07:08:52;;;;;;;29.58;13.05;;;0.40;99.90;;;;;;4962812;28;20433;-63
2023/12/02 07:11:19;;;;;;;27.85;12.90;;;0.40;99.90;;;;;;4971190;28;20182;-64
2023/12/02 07:13:44;;;;;;;26.83;12.32;;;0.40;99.90;;;;;;4965993;28;20485;-64
2023/12/02 07:16:11;;;;;;;27.15;12.40;;;0.30;99.90;;;;;;4970891;28;20046;-62
2023/12/02 07:18:37;;;;;;;27.98;11.88;;;0.30;99.90;;;;;;4966095;28;20096;-63
2023/12/02 07:21:02;;;;;;;29.98;12.65;;;0.20;99.90;;;;;;4970157;28;20497;-63
2023/12/02 07:23:28;;;;;;;27.20;11.73;;;0.20;99.90;;;;;;4970413;28;20030;-63
2023/12/02 07:25:55;;;;;;;29.70;13.60;;;0.20;99.90;;;;;;4970003;28;20584;-63
2023/12/02 07:28:21;;;;;;;29.25;12.95;;;0.30;99.90;;;;;;4970615;28;20023;-64
2023/12/02 07:30:48;;;;;;;28.25;13.35;;;0.30;99.90;;;;;;4969280;28;20424;-64
2023/12/02 07:33:14;;;;;;;26.42;11.80;;;0.30;99.90;;;;;;4967144;28;20452;-64
2023/12/02 07:35:39;;;;;;;25.88;11.75;;;0.30;99.90;;;;;;4965810;28;20035;-64
2023/12/02 07:38:05;;;;;;;24.85;12.38;;;0.30;99.90;;;;;;4970834;28;20604;-62
2023/12/02 07:40:31;;;;;;;27.15;11.48;;;0.20;99.90;;;;;;4969918;28;20019;-63
2023/12/02 07:42:56;;;;;;;22.00;11.25;;;0.10;99.90;;;;;;4968724;28;20022;-63
2023/12/02 07:45:22;;;;;;;27.13;12.73;;;0.20;99.90;;;;;;4971088;28;20481;-63
2023/12/02 07:47:47;;;;;;;27.27;12.50;;;0.20;99.90;;;;;;4967586;28;20485;-63
2023/12/02 07:50:13;;;;;;;24.95;11.75;;;0.10;99.90;;;;;;4968825;28;20034;-63
2023/12/02 07:52:38;;;;;;;23.27;11.23;;;0.10;99.90;;;;;;4969968;28;20062;-72
2023/12/02 07:55:04;;;;;;;25.15;11.57;;;0.10;99.90;;;;;;4969640;28;20023;-63
2023/12/02 07:57:30;;;;;;;26.50;11.93;;;0.10;99.90;;;;;;4969848;28;20088;-64
2023/12/02 07:59:55;;;;;;;31.95;13.20;;;0.10;99.90;;;;;;4968460;28;20023;-65
2023/12/02 08:02:21;;;;;;;30.85;12.75;;;0.10;99.90;;;;;;4970549;28;20058;-62
2023/12/02 08:04:47;;;;;;;24.38;11.70;;;0.10;99.90;;;;;;4967305;28;20027;-61
2023/12/02 08:07:12;;;;;;;27.70;12.48;;;0.10;99.90;;;;;;4969338;28;20437;-63
2023/12/02 08:09:38;;;;;;;26.75;12.38;;;0.00;99.90;;;;;;4970466;28;20054;-63
2023/12/02 08:12:04;;;;;;;29.27;12.52;;;0.00;99.90;;;;;;4968354;28;20063;-64
2023/12/02 08:14:30;;;;;;;27.67;11.90;;;0.00;99.90;;;;;;4970528;28;20110;-64
2023/12/02 08:16:55;;;;;;;25.70;11.13;;;0.00;99.90;;;;;;4968838;28;20105;-61
2023/12/02 08:19:21;;;;;;;27.08;13.10;;;0.10;99.90;;;;;;4966422;28;20121;-62
2023/12/02 08:21:46;;;;;;;30.33;13.40;;;0.20;99.90;;;;;;4967039;28;20185;-62
2023/12/02 08:24:12;;;;;;;30.55;13.10;;;0.10;99.90;;;;;;4968860;28;20030;-62
2023/12/02 08:26:37;;;;;;;27.75;12.38;;;0.10;99.90;;;;;;4968553;28;20126;-64
2023/12/02 08:29:03;;;;;;;29.92;13.63;;;0.00;99.90;;;;;;4971577;28;20068;-63
2023/12/02 08:31:30;;;;;;;27.92;12.13;;;0.00;99.90;;;;;;4969122;28;20031;-66
2023/12/02 08:33:55;;;;;;;33.30;13.65;;;0.00;99.90;;;;;;4966486;28;20030;-65
2023/12/02 08:36:21;;;;;;;32.25;14.50;;;0.00;99.90;;;;;;4970970;28;20019;-65
2023/12/02 08:38:46;;;;;;;27.45;12.85;;;0.00;99.90;;;;;;4967417;28;20493;-65
2023/12/02 08:41:12;;;;;;;28.98;12.80;;;0.10;99.90;;;;;;4968388;28;20489;-65
2023/12/02 08:43:37;;;;;;;32.42;13.65;;;0.20;99.90;;;;;;4968776;28;20035;-67
2023/12/02 08:46:03;;;;;;;27.40;11.82;;;0.20;99.90;;;;;;4966517;28;20086;-65
2023/12/02 08:48:28;;;;;;;27.95;11.25;;;0.20;99.90;;;;;;4969136;28;20027;-65
2023/12/02 08:50:54;;;;;;;24.80;11.23;;;0.30;99.90;;;;;;4967671;28;20045;-65
2023/12/02 08:53:19;;;;;;;29.23;11.70;;;0.30;99.90;;;;;;4969416;28;20113;-65
2023/12/02 08:55:45;;;;;;;29.10;11.80;;;0.30;99.90;;;;;;4972791;28;20031;-65
2023/12/02 08:58:11;;;;;;;29.17;11.93;;;0.30;99.90;;;;;;4970745;28;20034;-65
2023/12/02 09:00:36;;;;;;;32.78;12.40;;;0.40;99.90;;;;;;4971035;28;20076;-65
2023/12/02 09:03:02;;;;;;;31.98;13.95;;;0.30;99.90;;;;;;4969301;28;20396;-65
2023/12/02 09:05:28;;;;;;;32.65;12.48;;;0.30;99.90;;;;;;4971774;28;20032;-65
2023/12/02 09:07:53;;;;;;;32.58;12.95;;;0.40;99.90;;;;;;4967897;28;20023;-65
2023/12/02 09:10:19;;;;;;;32.92;13.20;;;0.40;99.90;;;;;;4967288;28;20022;-65
2023/12/02 09:12:44;;;;;;;30.67;12.20;;;0.50;99.90;;;;;;4969743;28;20019;-65
2023/12/02 09:15:16;;;;;;;30.95;14.40;;;0.50;99.90;;;;;;4972617;28;20509;-64
2023/12/02 09:18:00;;;;;;;31.05;13.75;;;0.50;99.90;;;;;;4972486;28;20177;-65
2023/12/02 09:20:47;;;;;;;33.05;13.05;;;0.60;99.90;;;;;;4967748;28;20042;-65
2023/12/02 09:23:14;;;;;;;28.92;12.93;;;0.50;99.90;;;;;;4970580;28;20035;-64
2023/12/02 09:25:41;;;;;;;34.67;14.60;;;0.50;99.90;;;;;;4971310;28;20030;-64
2023/12/02 09:28:07;;;;;;;34.45;15.55;;;0.60;99.90;;;;;;4972966;28;20022;-65
2023/12/02 09:30:34;;;;;;;33.03;14.13;;;0.60;99.90;;;;;;4967745;28;20031;-65
2023/12/02 09:33:00;;;;;;;32.45;13.63;;;0.60;99.90;;;;;;4973401;28;20085;-65
2023/12/02 09:35:26;;;;;;;33.42;14.35;;;0.60;99.90;;;;;;4969128;28;20030;-65
2023/12/02 09:37:52;;;;;;;33.50;14.27;;;0.50;99.90;;;;;;4969695;28;20105;-65
2023/12/02 09:40:20;;;;;;;33.97;13.90;;;0.60;99.90;;;;;;4970226;28;20074;-65
2023/12/02 09:42:54;;;;;;;38.80;14.50;;;0.60;99.90;;;;;;4968654;28;20024;-65
2023/12/02 09:45:23;;;;;;;39.92;16.27;;;0.50;99.90;;;;;;4970045;28;20029;-65
2023/12/02 09:48:02;;;;;;;40.70;16.05;;;0.50;99.90;;;;;;4969489;28;20035;-65
2023/12/02 09:50:37;;;;;;;32.90;13.60;;;0.40;99.90;;;;;;4968442;28;20027;-65
2023/12/02 09:53:25;;;;;;;32.08;13.68;;;0.50;99.90;;;;;;4967962;28;20489;-65
2023/12/02 09:55:57;;;;;;;36.47;15.02;;;0.50;99.90;;;;;;4970497;28;20154;-65
2023/12/02 09:58:27;;;;;;;35.20;13.98;;;0.50;99.90;;;;;;4967954;28;20027;-65
2023/12/02 10:00:59;;;;;;;36.90;15.45;;;0.50;99.90;;;;;;4968447;28;20035;-65
2023/12/02 10:03:28;;;;;;;34.60;13.68;;;0.50;99.90;;;;;;4968246;28;20031;-65
2023/12/02 10:06:18;;;;;;;35.58;14.30;;;0.50;99.90;;;;;;4967819;28;20030;-66
2023/12/02 10:09:11;;;;;;;34.10;13.38;;;0.50;99.90;;;;;;4968972;28;20027;-65
2023/12/02 10:11:57;;;;;;;31.48;12.90;;;0.60;99.90;;;;;;4970323;28;20030;-65
2023/12/02 10:14:25;;;;;;;30.13;12.13;;;0.60;99.90;;;;;;4962233;28;20039;-65
2023/12/02 10:16:53;;;;;;;36.67;13.18;;;0.60;99.90;;;;;;4966418;28;20070;-65
2023/12/02 10:19:41;;;;;;;30.90;12.85;;;0.60;99.90;;;;;;4966677;28;20023;-65
2023/12/02 10:22:10;;;;;;;30.35;12.40;;;0.50;99.90;;;;;;4971041;28;20048;-65
2023/12/02 10:24:43;;;;;;;29.95;12.32;;;0.50;99.90;;;;;;4967167;28;20118;-66
2023/12/02 10:27:16;;;;;;;37.92;14.18;;;0.40;99.90;;;;;;4971846;28;20485;-66
2023/12/02 10:30:03;;;;;;;30.40;12.33;;;0.50;99.90;;;;;;4964429;28;20058;-66
2023/12/02 10:33:06;;;;;;;33.08;12.68;;;0.60;99.90;;;;;;4971085;28;20027;-65
2023/12/02 10:35:37;;;;;;;29.30;13.50;;;0.60;99.90;;;;;;4967274;28;20026;-66
2023/12/02 10:38:21;;;;;;;30.90;12.77;;;0.70;99.90;;;;;;4969514;28;20116;-65
2023/12/02 10:40:56;;;;;;;31.83;12.63;;;0.70;99.90;;;;;;4968171;28;20041;-65
2023/12/02 10:43:41;;;;;;;31.67;11.63;;;0.70;99.90;;;;;;4965552;28;20042;-65
2023/12/02 10:46:07;;;;;;;;;;;0.70;99.90;;;;;;4964677;28;20048;-65
2023/12/02 10:48:38;;;;;;;24.58;11.82;;;0.70;99.90;;;;;;4968421;28;19917;-64
2023/12/02 10:51:06;;;;;;;30.88;12.95;;;0.70;99.90;;;;;;4969626;28;20027;-65
2023/12/02 10:53:34;;;;;;;33.80;14.85;;;0.70;99.90;;;;;;4967155;28;20583;-65
2023/12/02 10:56:05;;;;;;;34.00;12.98;;;0.70;99.90;;;;;;4963632;28;20058;-65
2023/12/02 10:58:32;;;;;;;34.72;12.70;;;0.60;99.90;;;;;;4970874;28;20034;-65
2023/12/02 11:01:04;;;;;;;26.92;12.63;;;0.60;99.90;;;;;;4968842;28;20031;-65
2023/12/02 11:03:51;;;;;;;30.55;11.88;;;0.60;99.90;;;;;;4966561;28;20034;-64
2023/12/02 11:06:31;;;;;;;26.60;11.35;;;0.70;99.90;;;;;;4970020;28;20078;-65
2023/12/02 11:09:34;;;;;;;29.63;13.50;;;0.60;99.90;;;;;;4970305;28;20037;-64
2023/12/02 11:12:25;;;;;;;31.50;13.02;;;0.60;99.90;;;;;;4938391;28;20098;-65
2023/12/02 11:15:02;;;;;;;27.25;12.73;;;0.70;99.90;;;;;;4959060;28;20505;-65
2023/12/02 11:18:09;;;;;;;28.00;11.93;;;0.70;99.90;;;;;;4971727;28;20077;-65
2023/12/02 11:20:50;;;;;;;27.77;12.30;;;0.70;99.90;;;;;;4962301;28;20116;-66
2023/12/02 11:23:59;;;;;;;31.45;13.00;;;0.70;99.90;;;;;;4968105;28;20046;-65
2023/12/02 11:26:28;;;;;;;27.27;12.80;;;0.70;99.90;;;;;;4986059;28;20031;-65
2023/12/02 11:29:12;;;;;;;26.08;11.45;;;0.80;99.90;;;;;;4966672;28;20018;-65
2023/12/02 11:32:10;;;;;;;24.55;11.88;;;0.80;99.90;;;;;;4969317;28;20057;-64
2023/12/02 11:34:50;;;;;;;23.42;10.75;;;0.90;99.90;;;;;;4948716;28;20066;-65
2023/12/02 11:37:39;;;;;;;27.67;11.27;;;1.00;99.90;;;;;;4971494;28;20437;-63
2023/12/02 11:40:23;;;;;;;24.63;11.43;;;0.90;99.90;;;;;;4964175;28;20031;-63
2023/12/02 11:42:59;;;;;;;20.13;9.63;;;1.10;99.90;;;;;;4969648;28;20038;-63
2023/12/02 11:45:38;;;;;;;25.83;10.57;;;1.00;99.90;;;;;;4964586;28;20126;-63
2023/12/02 11:48:20;;;;;;;22.42;10.18;;;1.10;99.90;;;;;;4965778;28;20027;-63
2023/12/02 11:51:06;;;;;;;24.42;11.10;;;1.00;99.90;;;;;;4964780;28;20019;-61
2023/12/02 11:53:40;;;;;;;24.38;10.52;;;1.00;99.90;;;;;;4968269;28;20035;-62
2023/12/02 11:56:12;;;;;;;23.25;10.18;;;1.10;99.90;;;;;;4968923;28;20031;-65
2023/12/02 11:59:16;;;;;;;23.27;10.93;;;0.80;99.90;;;;;;4966056;28;20504;-66
2023/12/02 12:02:06;;;;;;;17.33;8.07;;;1.30;99.90;;;;;;4964582;28;20069;-66
2023/12/02 12:04:59;;;;;;;23.60;10.43;;;1.60;99.90;;;;;;4964832;28;20264;-65
2023/12/02 12:07:48;;;;;;;21.83;10.82;;;1.60;99.90;;;;;;4967589;28;20058;-65
2023/12/02 12:10:18;;;;;;;22.02;10.60;;;1.60;99.90;;;;;;4966604;28;20029;-65
2023/12/02 12:12:47;;;;;;;21.83;9.43;;;1.50;99.90;;;;;;4965451;28;20039;-68
2023/12/02 12:15:13;;;;;;;21.25;10.48;;;1.30;99.90;;;;;;4962507;28;20038;-67
2023/12/02 12:17:39;;;;;;;24.08;10.60;;;1.40;99.90;;;;;;4968922;28;20039;-65
2023/12/02 12:20:18;;;;;;;21.88;10.25;;;1.50;99.90;;;;;;4963912;28;20544;-65
2023/12/02 12:22:43;;;;;;;22.15;11.07;;;1.40;99.90;;;;;;4968678;28;20133;-66
2023/12/02 12:25:09;;;;;;;22.25;11.82;;;1.40;99.90;;;;;;4966872;28;20102;-65
2023/12/02 12:27:34;;;;;;;20.20;10.25;;;1.50;99.90;;;;;;4970246;28;20033;-67
2023/12/02 12:30:00;;;;;;;23.00;10.93;;;1.10;99.90;;;;;;4970332;28;20042;-66
2023/12/02 12:32:26;;;;;;;24.42;11.65;;;1.50;99.90;;;;;;4968336;28;20401;-66
2023/12/02 12:34:53;;;;;;;23.98;11.82;;;1.90;99.90;;;;;;4971156;28;20106;-66
2023/12/02 12:37:19;;;;;;;23.20;11.45;;;1.90;99.90;;;;;;4965324;28;20724;-65
2023/12/02 12:39:45;;;;;;;25.88;11.50;;;2.00;99.90;;;;;;4965193;28;20062;-65
2023/12/02 12:42:12;;;;;;;22.38;10.75;;;2.10;99.90;;;;;;4970620;28;20059;-66